sensor_id;sensor_type;location;lat;lon;timestamp;temperature;humidity
4594;DHT22;2309;51.674;8.368;2023-02-16T06:41:54;2.70;99.90
4594;DHT22;2309;51.674;8.368;2023-02-16T06:44:21;2.70;99.90
4594;DHT22;2309;51.674;8.368;2023-02-16T06:46:48;2.70;99.90
4594;DHT22;2309;51.674;8.368;2023-02-16T06:49:17;2.60;99.90
4594;DHT22;2309;51.674;8.368;2023-02-16T06:51:44;2.70;99.90
4594;DHT22;2309;51.674;8.368;2023-02-16T06:54:11;2.70;88.00
4594;DHT22;2309;51.674;8.368;2023-02-16T06:56:55;2.70;38.30
4594;DHT22;2309;51.674;8.368;2023-02-16T06:59:11;2.70;38.20
4594;DHT22;2309;51.674;8.368;2023-02-16T07:01:38;2.60;37.90
4594;DHT22;2309;51.674;8.368;2023-02-16T07:04:05;2.60;53.20
4594;DHT22;2309;51.674;8.368;2023-02-16T07:09:01;2.40;21.10
4594;DHT22;2309;51.674;8.368;2023-02-16T07:11:29;2.30;1.00
4594;DHT22;2309;51.674;8.368;2023-02-16T07:13:57;2.30;16.70
4594;DHT22;2309;51.674;8.368;2023-02-16T07:16:30;2.30;13.80
4594;DHT22;2309;51.674;8.368;2023-02-16T07:18:57;2.40;26.70
4594;DHT22;2309;51.674;8.368;2023-02-16T07:21:23;2.70;50.50
4594;DHT22;2309;51.674;8.368;2023-02-16T07:23:50;3.00;68.00
4594;DHT22;2309;51.674;8.368;2023-02-16T07:26:18;3.40;15.00
4594;DHT22;2309;51.674;8.368;2023-02-16T07:33:44;4.40;1.00
4594;DHT22;2309;51.674;8.368;2023-02-16T07:36:08;4.60;1.00
4594;DHT22;2309;51.674;8.368;2023-02-16T07:38:36;4.80;1.00
4594;DHT22;2309;51.674;8.368;2023-02-16T07:41:05;4.70;1.00
4594;DHT22;2309;51.674;8.368;2023-02-16T07:43:36;4.80;1.00
4594;DHT22;2309;51.674;8.368;2023-02-16T07:48:32;4.90;8.60
4594;DHT22;2309;51.674;8.368;2023-02-16T07:50:59;5.00;1.00
4594;DHT22;2309;51.674;8.368;2023-02-16T07:53:26;5.20;1.00
4594;DHT22;2309;51.674;8.368;2023-02-16T07:55:53;5.40;1.00
4594;DHT22;2309;51.674;8.368;2023-02-16T07:58:21;5.60;27.50
4594;DHT22;2309;51.674;8.368;2023-02-16T08:00:53;5.80;21.50
4594;DHT22;2309;51.674;8.368;2023-02-16T08:05:47;5.90;96.30
4594;DHT22;2309;51.674;8.368;2023-02-16T08:08:14;5.90;99.90
4594;DHT22;2309;51.674;8.368;2023-02-16T08:10:42;6.10;99.90
4594;DHT22;2309;51.674;8.368;2023-02-16T08:13:09;6.20;67.20
4594;DHT22;2309;51.674;8.368;2023-02-16T08:15:36;6.20;99.90
4594;DHT22;2309;51.674;8.368;2023-02-16T08:18:03;6.20;99.90
4594;DHT22;2309;51.674;8.368;2023-02-16T08:20:32;6.20;99.90
4594;DHT22;2309;51.674;8.368;2023-02-16T08:22:59;6.30;99.90
4594;DHT22;2309;51.674;8.368;2023-02-16T08:25:32;6.40;99.90
4594;DHT22;2309;51.674;8.368;2023-02-16T08:30:28;6.40;99.90
4594;DHT22;2309;51.674;8.368;2023-02-16T08:32:59;6.40;99.90
4594;DHT22;2309;51.674;8.368;2023-02-16T08:35:31;4.50;99.90
4594;DHT22;2309;51.674;8.368;2023-02-16T08:38:00;6.40;99.90
4594;DHT22;2309;51.674;8.368;2023-02-16T08:40:38;6.50;99.90
4594;DHT22;2309;51.674;8.368;2023-02-16T08:42:57;6.60;99.90
4594;DHT22;2309;51.674;8.368;2023-02-16T08:45:25;6.60;99.90
4594;DHT22;2309;51.674;8.368;2023-02-16T08:47:56;6.70;1.00
4594;DHT22;2309;51.674;8.368;2023-02-16T08:50:31;6.70;1.00
4594;DHT22;2309;51.674;8.368;2023-02-16T08:53:03;6.90;1.00
4594;DHT22;2309;51.674;8.368;2023-02-16T08:55:29;7.10;1.00
4594;DHT22;2309;51.674;8.368;2023-02-16T08:58:01;7.20;1.00
4594;DHT22;2309;51.674;8.368;2023-02-16T09:18:32;8.80;99.90
4594;DHT22;2309;51.674;8.368;2023-02-16T09:38:26;9.60;99.90
4594;DHT22;2309;51.674;8.368;2023-02-16T09:40:55;9.70;99.90
4594;DHT22;2309;51.674;8.368;2023-02-16T09:45:53;9.80;99.90
4594;DHT22;2309;51.674;8.368;2023-02-16T09:48:23;9.60;99.90
4594;DHT22;2309;51.674;8.368;2023-02-16T09:50:52;9.50;99.90
4594;DHT22;2309;51.674;8.368;2023-02-16T09:53:21;9.70;99.90
4594;DHT22;2309;51.674;8.368;2023-02-16T09:58:21;9.90;99.90
4594;DHT22;2309;51.674;8.368;2023-02-16T10:00:51;10.20;99.90
4594;DHT22;2309;51.674;8.368;2023-02-16T10:08:15;11.00;99.90
4594;DHT22;2309;51.674;8.368;2023-02-16T10:10:46;11.20;99.90
4594;DHT22;2309;51.674;8.368;2023-02-16T10:13:21;11.30;99.90
4594;DHT22;2309;51.674;8.368;2023-02-16T10:15:43;11.40;99.90
4594;DHT22;2309;51.674;8.368;2023-02-16T10:18:32;11.40;99.90
4594;DHT22;2309;51.674;8.368;2023-02-16T10:20:42;11.40;99.90
4594;DHT22;2309;51.674;8.368;2023-02-16T10:28:12;11.60;99.90
4594;DHT22;2309;51.674;8.368;2023-02-16T10:30:47;12.00;99.90
4594;DHT22;2309;51.674;8.368;2023-02-16T10:33:40;12.40;99.90
4594;DHT22;2309;51.674;8.368;2023-02-16T10:35:39;12.60;99.90
4594;DHT22;2309;51.674;8.368;2023-02-16T10:38:06;12.60;99.90
4594;DHT22;2309;51.674;8.368;2023-02-16T10:43:04;12.60;99.90
4594;DHT22;2309;51.674;8.368;2023-02-16T10:45:38;12.40;99.90
4594;DHT22;2309;51.674;8.368;2023-02-16T10:48:01;12.30;99.90
4594;DHT22;2309;51.674;8.368;2023-02-16T10:50:30;12.10;99.90
4594;DHT22;2309;51.674;8.368;2023-02-16T10:52:59;11.70;99.90
4594;DHT22;2309;51.674;8.368;2023-02-16T10:55:26;11.60;99.90
4594;DHT22;2309;51.674;8.368;2023-02-16T10:57:55;11.70;99.90
4594;DHT22;2309;51.674;8.368;2023-02-16T11:00:28;11.70;99.90
4594;DHT22;2309;51.674;8.368;2023-02-16T11:02:50;11.70;99.90
4594;DHT22;2309;51.674;8.368;2023-02-16T11:05:27;11.80;99.90
4594;DHT22;2309;51.674;8.368;2023-02-16T11:07:51;12.10;99.90
4594;DHT22;2309;51.674;8.368;2023-02-16T11:10:19;12.10;99.90
4594;DHT22;2309;51.674;8.368;2023-02-16T11:18:24;12.30;99.90
4594;DHT22;2309;51.674;8.368;2023-02-16T11:20:51;12.10;99.90
4594;DHT22;2309;51.674;8.368;2023-02-16T11:23:21;11.90;99.90
4594;DHT22;2309;51.674;8.368;2023-02-16T11:26:20;11.90;99.90
4594;DHT22;2309;51.674;8.368;2023-02-16T11:28:17;11.90;99.90
4594;DHT22;2309;51.674;8.368;2023-02-16T11:30:45;12.00;99.90
4594;DHT22;2309;51.674;8.368;2023-02-16T11:33:20;11.90;99.90
4594;DHT22;2309;51.674;8.368;2023-02-16T11:35:42;11.90;99.90
4594;DHT22;2309;51.674;8.368;2023-02-16T11:38:25;11.80;99.90
4594;DHT22;2309;51.674;8.368;2023-02-16T11:40:41;11.60;99.90
4594;DHT22;2309;51.674;8.368;2023-02-16T11:43:13;11.50;99.90
4594;DHT22;2309;51.674;8.368;2023-02-16T11:45:40;11.40;99.90
4594;DHT22;2309;51.674;8.368;2023-02-16T11:48:11;11.30;99.90
4594;DHT22;2309;51.674;8.368;2023-02-16T11:50:39;11.20;99.90
4594;DHT22;2309;51.674;8.368;2023-02-16T11:58:35;11.20;99.90
4594;DHT22;2309;51.674;8.368;2023-02-16T12:00:33;11.40;99.90
4594;DHT22;2309;51.674;8.368;2023-02-16T12:16:23;11.40;99.90
4594;DHT22;2309;51.674;8.368;2023-02-16T12:43:59;14.10;1.00
4594;DHT22;2309;51.674;8.368;2023-02-16T12:46:34;15.20;1.00
4594;DHT22;2309;51.674;8.368;2023-02-16T12:49:06;15.30;99.90
4594;DHT22;2309;51.674;8.368;2023-02-16T12:51:29;15.40;1.00
4594;DHT22;2309;51.674;8.368;2023-02-16T12:53:58;15.00;1.00
4594;DHT22;2309;51.674;8.368;2023-02-16T12:56:29;15.00;1.00
4594;DHT22;2309;51.674;8.368;2023-02-16T12:58:56;14.50;99.90
4594;DHT22;2309;51.674;8.368;2023-02-16T13:01:24;13.90;21.30
4594;DHT22;2309;51.674;8.368;2023-02-16T13:08:49;12.90;1.00
4594;DHT22;2309;51.674;8.368;2023-02-16T13:13:46;12.50;1.00
4594;DHT22;2309;51.674;8.368;2023-02-16T13:16:15;12.30;99.90
4594;DHT22;2309;51.674;8.368;2023-02-16T13:18:42;11.80;99.90
4594;DHT22;2309;51.674;8.368;2023-02-16T13:21:38;11.60;99.90
4594;DHT22;2309;51.674;8.368;2023-02-16T13:28:57;11.60;99.90
4594;DHT22;2309;51.674;8.368;2023-02-16T13:31:31;11.50;99.90
4594;DHT22;2309;51.674;8.368;2023-02-16T13:36:36;11.30;99.90
4594;DHT22;2309;51.674;8.368;2023-02-16T13:42:01;10.90;99.90
4594;DHT22;2309;51.674;8.368;2023-02-16T13:43:56;10.90;99.90
4594;DHT22;2309;51.674;8.368;2023-02-16T13:46:26;10.90;1.00
4594;DHT22;2309;51.674;8.368;2023-02-16T13:48:53;10.90;1.00
4594;DHT22;2309;51.674;8.368;2023-02-16T13:51:21;10.80;1.00
4594;DHT22;2309;51.674;8.368;2023-02-16T13:53:51;10.80;1.00
4594;DHT22;2309;51.674;8.368;2023-02-16T13:56:20;10.80;1.00
4594;DHT22;2309;51.674;8.368;2023-02-16T13:58:48;10.80;1.00
4594;DHT22;2309;51.674;8.368;2023-02-16T14:03:43;10.80;1.00
4594;DHT22;2309;51.674;8.368;2023-02-16T14:08:38;10.80;1.00
4594;DHT22;2309;51.674;8.368;2023-02-16T14:11:08;10.90;1.00
4594;DHT22;2309;51.674;8.368;2023-02-16T14:16:35;11.10;1.00
4594;DHT22;2309;51.674;8.368;2023-02-16T14:19:05;11.50;1.00
4594;DHT22;2309;51.674;8.368;2023-02-16T14:21:01;11.70;1.00
4594;DHT22;2309;51.674;8.368;2023-02-16T14:23:34;12.50;99.90
4594;DHT22;2309;51.674;8.368;2023-02-16T14:26:00;12.80;99.90
4594;DHT22;2309;51.674;8.368;2023-02-16T14:31:10;13.10;99.90
4594;DHT22;2309;51.674;8.368;2023-02-16T14:33:39;13.10;99.90
4594;DHT22;2309;51.674;8.368;2023-02-16T14:36:12;13.80;99.90
4594;DHT22;2309;51.674;8.368;2023-02-16T14:38:35;14.90;86.60
4594;DHT22;2309;51.674;8.368;2023-02-16T14:41:04;16.00;74.70
4594;DHT22;2309;51.674;8.368;2023-02-16T14:43:37;15.80;69.20
4594;DHT22;2309;51.674;8.368;2023-02-16T14:58:34;12.30;89.80
4594;DHT22;2309;51.674;8.368;2023-02-16T15:01:08;11.90;93.50
4594;DHT22;2309;51.674;8.368;2023-02-16T15:03:37;11.80;95.20
4594;DHT22;2309;51.674;8.368;2023-02-16T15:05:56;11.50;98.00
4594;DHT22;2309;51.674;8.368;2023-02-16T15:08:27;11.40;98.40
4594;DHT22;2309;51.674;8.368;2023-02-16T15:10:54;11.20;99.90
4594;DHT22;2309;51.674;8.368;2023-02-16T15:13:25;11.20;99.90
4594;DHT22;2309;51.674;8.368;2023-02-16T15:15:51;11.10;99.90
4594;DHT22;2309;51.674;8.368;2023-02-16T15:18:21;10.90;99.90
4594;DHT22;2309;51.674;8.368;2023-02-16T15:20:50;10.80;99.90
4594;DHT22;2309;51.674;8.368;2023-02-16T15:23:22;10.80;99.90
4594;DHT22;2309;51.674;8.368;2023-02-16T15:25:54;10.70;99.90
4594;DHT22;2309;51.674;8.368;2023-02-16T15:28:17;10.70;99.90
4594;DHT22;2309;51.674;8.368;2023-02-16T15:30:51;10.60;99.90
4594;DHT22;2309;51.674;8.368;2023-02-16T15:33:13;10.60;99.90
4594;DHT22;2309;51.674;8.368;2023-02-16T15:35:41;10.60;99.90
4594;DHT22;2309;51.674;8.368;2023-02-16T15:40:38;10.50;99.90
4594;DHT22;2309;51.674;8.368;2023-02-16T15:43:24;10.50;99.90
4594;DHT22;2309;51.674;8.368;2023-02-16T15:45:35;10.40;99.90
4594;DHT22;2309;51.674;8.368;2023-02-16T15:48:20;10.40;99.90
4594;DHT22;2309;51.674;8.368;2023-02-16T15:50:32;10.30;99.90
4594;DHT22;2309;51.674;8.368;2023-02-16T15:53:00;10.30;99.90
4594;DHT22;2309;51.674;8.368;2023-02-16T15:55:27;10.30;99.90
4594;DHT22;2309;51.674;8.368;2023-02-16T15:57:53;10.30;99.90
4594;DHT22;2309;51.674;8.368;2023-02-16T16:00:22;10.30;99.90
4594;DHT22;2309;51.674;8.368;2023-02-16T16:02:53;10.20;99.90
4594;DHT22;2309;51.674;8.368;2023-02-16T16:05:21;10.20;99.90
4594;DHT22;2309;51.674;8.368;2023-02-16T16:07:46;10.20;99.90
4594;DHT22;2309;51.674;8.368;2023-02-16T16:10:17;10.10;99.90
4594;DHT22;2309;51.674;8.368;2023-02-16T16:12:43;10.10;99.90
4594;DHT22;2309;51.674;8.368;2023-02-16T16:15:14;10.10;99.90
4594;DHT22;2309;51.674;8.368;2023-02-16T16:17:38;10.10;99.90
4594;DHT22;2309;51.674;8.368;2023-02-16T16:20:37;10.10;99.90
4594;DHT22;2309;51.674;8.368;2023-02-16T16:22:37;10.00;99.90
4594;DHT22;2309;51.674;8.368;2023-02-16T16:27:34;10.00;99.90
4594;DHT22;2309;51.674;8.368;2023-02-16T16:32:30;9.90;99.90
4594;DHT22;2309;51.674;8.368;2023-02-16T16:34:58;9.90;99.90
4594;DHT22;2309;51.674;8.368;2023-02-16T16:37:27;9.80;99.90
4594;DHT22;2309;51.674;8.368;2023-02-16T16:39:58;9.90;99.90
4594;DHT22;2309;51.674;8.368;2023-02-16T16:42:23;9.80;99.90
4594;DHT22;2309;51.674;8.368;2023-02-16T16:44:53;9.80;99.90
4594;DHT22;2309;51.674;8.368;2023-02-16T16:47:29;9.80;99.90
4594;DHT22;2309;51.674;8.368;2023-02-16T16:49:51;9.70;99.90
